createdAt,value
2023-02-15T00:01:10.613Z,3.93002
2023-02-15T00:06:12.265Z,3.3876
2023-02-15T00:11:13.995Z,4.27364
2023-02-15T00:16:15.661Z,3.95193
2023-02-15T00:21:17.468Z,4.14693
2023-02-15T00:26:19.167Z,3.10719
2023-02-15T00:31:20.800Z,3.74043
2023-02-15T00:36:22.806Z,2.10588
2023-02-15T00:41:24.612Z,2.14812
2023-02-15T00:46:26.828Z,2.3701
2023-02-15T00:51:28.471Z,1.74608
2023-02-15T00:56:30.067Z,2.05888
2023-02-15T01:01:31.847Z,2.46378
2023-02-15T01:06:33.471Z,1.96456
2023-02-15T01:11:35.141Z,1.43454
2023-02-15T01:16:36.825Z,1.7737
2023-02-15T01:21:38.428Z,0.69398
2023-02-15T01:26:40.076Z,1.22844
2023-02-15T01:31:42.001Z,0.97502
2023-02-15T01:36:43.708Z,1.36754
2023-02-15T01:41:45.370Z,-0.09358
2023-02-15T01:46:47.107Z,0.16015
2023-02-15T01:51:48.720Z,0.38404
2023-02-15T01:56:50.338Z,1.10999
2023-02-15T02:01:52.197Z,0.90929
2023-02-15T02:06:53.858Z,0.04107
2023-02-15T02:11:55.536Z,1.24877
2023-02-15T02:16:57.295Z,0.79623
2023-02-15T02:21:58.925Z,0.35927
2023-02-15T02:27:00.514Z,-0.58262
2023-02-15T02:32:03.493Z,-0.6328
2023-02-15T02:37:05.188Z,-0.57405
2023-02-15T02:42:06.789Z,-0.32159
2023-02-15T02:47:08.702Z,0.04996
2023-02-15T02:52:10.292Z,-0.56484
2023-02-15T02:57:11.977Z,-1.37144
2023-02-15T03:02:13.677Z,-1.15137
2023-02-15T03:07:15.294Z,-0.64804
2023-02-15T03:12:16.966Z,-0.24188
2023-02-15T03:17:18.773Z,-1.18217
2023-02-15T03:22:20.392Z,-0.9602
2023-02-15T03:27:22.006Z,-0.84016
2023-02-15T03:32:23.913Z,-0.77125
2023-02-15T03:37:25.526Z,-1.25998
2023-02-15T03:42:27.199Z,-1.79379
2023-02-15T03:47:29.068Z,-0.93543
2023-02-15T03:52:30.675Z,-1.66359
2023-02-15T03:57:32.368Z,-1.5461
2023-02-15T04:02:34.214Z,-1.02911
2023-02-15T04:07:35.976Z,-1.30285
2023-02-15T04:12:37.615Z,-1.02784
2023-02-15T04:17:39.360Z,-2.37618
2023-02-15T04:22:41.034Z,-2.3981
2023-02-15T04:27:42.655Z,-1.55245
2023-02-15T04:32:44.360Z,-2.02814
2023-02-15T04:37:46.011Z,-2.69818
2023-02-15T04:42:47.620Z,-1.7252
2023-02-15T04:47:49.318Z,-1.52133
2023-02-15T04:52:50.993Z,-1.37652
2023-02-15T04:57:52.706Z,-1.90525
2023-02-15T05:02:54.463Z,-1.65565
2023-02-15T05:07:56.609Z,-3.06369
2023-02-15T05:12:58.234Z,-2.08499
2023-02-15T05:17:59.901Z,-2.29838
2023-02-15T05:23:03.236Z,-2.18756
2023-02-15T05:28:05.394Z,-3.10179
2023-02-15T05:33:07.164Z,-1.92113
2023-02-15T05:38:08.875Z,-2.77059
2023-02-15T05:43:10.555Z,-1.89128
2023-02-15T05:48:12.202Z,-1.95161
2023-02-15T05:53:13.879Z,-2.00719
2023-02-15T05:58:15.632Z,-2.72295
2023-02-15T06:03:17.358Z,-3.31963
2023-02-15T06:08:19.088Z,-2.95572
2023-02-15T06:13:20.800Z,-2.45081
2023-02-15T06:18:22.497Z,-3.22564
2023-02-15T06:23:24.104Z,-2.78678
2023-02-15T06:28:25.846Z,-2.91761
2023-02-15T06:33:27.548Z,-3.22437
2023-02-15T06:38:29.196Z,-3.13831
2023-02-15T06:43:31.419Z,-3.49714
2023-02-15T06:48:33.231Z,-3.42061
2023-02-15T06:53:34.835Z,-2.69882
2023-02-15T06:58:36.439Z,-3.43713
2023-02-15T07:03:38.461Z,-2.87093
2023-02-15T07:08:40.171Z,-2.65722
2023-02-15T07:13:41.832Z,-2.73597
2023-02-15T07:18:43.595Z,-2.6388
2023-02-15T07:23:45.319Z,-3.97728
2023-02-15T07:28:47.114Z,-4.06016
2023-02-15T07:33:49.340Z,-4.03983
2023-02-15T07:38:51.277Z,-3.61813
2023-02-15T07:43:52.968Z,-4.26021
2023-02-15T07:48:55.260Z,-4.07476
2023-02-15T07:53:56.925Z,-3.7207
2023-02-15T07:58:58.581Z,-3.40632
2023-02-15T08:04:00.475Z,-3.01637
2023-02-15T08:09:02.446Z,-3.44697
2023-02-15T08:14:04.328Z,-3.83247
2023-02-15T08:19:05.978Z,-4.33833
2023-02-15T08:24:07.566Z,-3.61082
2023-02-15T08:29:10.095Z,-3.33011
2023-02-15T08:34:11.772Z,-3.60479
2023-02-15T08:39:13.451Z,-3.53271
2023-02-15T08:44:15.129Z,-3.21166
2023-02-15T08:49:16.807Z,-3.69815
2023-02-15T08:54:18.635Z,-4.03856
2023-02-15T08:59:20.317Z,-3.60828
2023-02-15T09:04:21.978Z,-3.26819
2023-02-15T09:09:23.862Z,-3.36409
2023-02-15T09:14:25.492Z,-3.10973
2023-02-15T09:19:27.231Z,-2.89856
2023-02-15T09:24:28.830Z,-3.05003
2023-02-15T09:29:30.535Z,-2.74137
2023-02-15T09:34:34.125Z,-3.02971
2023-02-15T09:39:36.716Z,-3.4892
2023-02-15T09:44:38.430Z,-4.03729
2023-02-15T09:49:40.059Z,-4.4682
2023-02-15T09:54:41.651Z,-3.67846
2023-02-15T09:59:43.387Z,-3.26247
2023-02-15T10:04:45.370Z,-3.23103
2023-02-15T10:09:47.073Z,-3.36187
2023-02-15T10:14:48.832Z,-3.01923
2023-02-15T10:19:50.462Z,-2.85791
2023-02-15T10:24:52.112Z,-3.03257
2023-02-15T10:29:53.723Z,-3.10401
2023-02-15T10:34:55.299Z,-3.88519
2023-02-15T10:39:56.975Z,-3.94044
2023-02-15T10:44:58.693Z,-3.40728
2023-02-15T10:50:00.298Z,-3.65528
2023-02-15T10:55:01.920Z,-4.29578
2023-02-15T11:00:03.583Z,-3.99696
2023-02-15T11:05:05.266Z,-4.35198
2023-02-15T11:10:06.978Z,-4.25545
2023-02-15T11:15:08.621Z,-3.83692
2023-02-15T11:20:10.177Z,-4.03253
2023-02-15T11:25:11.804Z,-4.70001
2023-02-15T11:30:13.543Z,-4.96675
2023-02-15T11:35:15.235Z,-4.75685
2023-02-15T11:40:16.844Z,-4.68604
2023-02-15T11:45:18.432Z,-5.15442
2023-02-15T11:50:20.231Z,-4.83275
2023-02-15T11:55:21.847Z,-5.3767
2023-02-15T12:00:23.440Z,-5.91017
2023-02-15T12:05:25.076Z,-4.98358
2023-02-15T12:10:26.724Z,-5.16204
2023-02-15T12:15:28.373Z,-5.73139
2023-02-15T12:20:29.991Z,-4.96294
2023-02-15T12:25:31.607Z,-5.32113
2023-02-15T12:30:33.378Z,-5.63867
2023-02-15T12:35:35.092Z,-5.53579
2023-02-15T12:40:36.714Z,-6.37664
2023-02-15T12:45:38.361Z,-5.99908
2023-02-15T12:50:40.181Z,-5.63264
2023-02-15T12:55:45.397Z,-6.04354
2023-02-15T13:00:47.234Z,-5.51229
2023-02-15T13:05:49.003Z,-5.56373
2023-02-15T13:10:50.609Z,-6.47634
2023-02-15T13:15:52.289Z,-5.88699
2023-02-15T13:20:54.095Z,-5.55579
2023-02-15T13:25:55.666Z,-6.21755
2023-02-15T13:30:57.408Z,-5.86317
2023-02-15T13:35:59.042Z,-6.5154
2023-02-15T13:41:01.091Z,-6.65289
2023-02-15T13:46:03.503Z,-6.11403
2023-02-15T13:51:05.332Z,-6.51381
2023-02-15T13:56:07.141Z,-6.66337
2023-02-15T14:01:08.764Z,-6.5751
2023-02-15T14:06:10.440Z,-7.24955
2023-02-15T14:11:12.330Z,-6.66814
2023-02-15T14:16:14.063Z,-6.2493
2023-02-15T14:21:15.703Z,-6.27852
2023-02-15T14:26:17.536Z,-5.52436
2023-02-15T14:31:19.300Z,-5.95939
2023-02-15T14:36:20.947Z,-6.0537
2023-02-15T14:41:22.562Z,-5.7895
2023-02-15T14:46:24.398Z,-6.59542
2023-02-15T14:51:26.093Z,-6.19945
2023-02-15T14:56:27.774Z,-6.58367
2023-02-15T15:01:29.507Z,-6.6729
2023-02-15T15:06:31.316Z,-6.43348
2023-02-15T15:11:43.001Z,-6.39474
2023-02-15T15:16:45.459Z,-6.28106
2023-02-15T15:21:47.068Z,-6.2293
2023-02-15T15:26:50.552Z,-6.67385
2023-02-15T15:31:53.243Z,-6.60272
2023-02-15T15:36:55.034Z,-7.07649
2023-02-15T15:41:56.688Z,-6.3833
2023-02-15T15:46:58.318Z,-6.55033
2023-02-15T15:51:59.919Z,-6.61257
2023-02-15T15:57:04.381Z,-4.61046
2023-02-15T16:02:06.048Z,-4.04301
2023-02-15T16:07:07.714Z,-4.74542
2023-02-15T16:12:09.338Z,-4.20718
2023-02-15T16:17:11.142Z,-3.88804
2023-02-15T16:22:12.929Z,-4.18082
2023-02-15T16:27:14.927Z,-4.42692
2023-02-15T16:32:16.639Z,-4.09445
2023-02-15T16:37:18.258Z,-3.77023
2023-02-15T16:42:19.949Z,-3.70196
2023-02-15T16:47:21.582Z,-2.27298
2023-02-15T16:52:23.227Z,-2.49495
2023-02-15T16:57:24.926Z,-2.12944
2023-02-15T17:02:49.452Z,-2.67945
2023-02-15T17:07:55.239Z,-2.34792
2023-02-15T17:12:57.182Z,-3.55462
2023-02-15T17:17:58.796Z,-3.46094
2023-02-15T17:23:00.470Z,-2.38254
2023-02-15T17:28:02.105Z,-2.11484
2023-02-15T17:33:03.901Z,-2.45684
2023-02-15T17:38:05.591Z,-2.19804
2023-02-15T17:43:07.159Z,-1.7506
2023-02-15T17:48:08.775Z,-0.99958
2023-02-15T17:53:10.495Z,-0.11327
2023-02-15T17:58:12.351Z,0.02964
2023-02-15T18:03:13.972Z,0.78861
2023-02-15T18:08:15.572Z,0.58569
2023-02-15T18:13:17.209Z,0.95946
2023-02-15T18:18:19.078Z,-0.72648
2023-02-15T18:23:20.863Z,0.01344
2023-02-15T18:28:22.466Z,-0.25077
2023-02-15T18:33:24.134Z,-0.36287
2023-02-15T18:38:25.783Z,-0.06151
2023-02-15T18:43:27.426Z,-0.1555
2023-02-15T18:48:29.058Z,0.22494
2023-02-15T18:53:30.645Z,0.17508
2023-02-15T18:58:32.317Z,-0.35557
2023-02-15T19:03:33.972Z,-0.55563
2023-02-15T19:08:35.628Z,-0.57437
2023-02-15T19:13:37.295Z,1.06998
2023-02-15T19:18:38.946Z,-0.39558
2023-02-15T19:23:40.563Z,0.12744
2023-02-15T19:28:42.175Z,0.21192
2023-02-15T19:33:43.800Z,1.1246
2023-02-15T19:38:45.670Z,-0.33493
2023-02-15T19:43:47.357Z,1.62858
2023-02-15T19:48:50.903Z,0.9023
2023-02-15T19:53:52.705Z,3.4508
2023-02-15T19:58:54.339Z,2.26054
2023-02-15T20:03:55.982Z,3.74075
2023-02-15T20:08:57.863Z,4.17329
2023-02-15T20:13:59.604Z,3.73281
2023-02-15T20:19:01.316Z,4.0326
2023-02-15T20:24:03.361Z,4.91451
2023-02-15T20:29:05.202Z,4.64679
2023-02-15T20:34:06.890Z,3.22913
2023-02-15T20:39:08.598Z,5.31022
2023-02-15T20:44:10.210Z,5.0498
2023-02-15T20:49:11.910Z,6.00382
2023-02-15T20:54:13.513Z,6.1715
2023-02-15T20:59:15.112Z,6.08576
2023-02-15T21:04:16.721Z,6.0197
2023-02-15T21:09:18.345Z,4.96215
2023-02-15T21:14:20.053Z,5.66528
2023-02-15T21:19:21.733Z,5.25274
2023-02-15T21:24:23.444Z,5.24003
2023-02-15T21:29:25.125Z,4.80495
2023-02-15T21:34:26.739Z,4.97581
2023-02-15T21:39:28.641Z,5.36135
2023-02-15T21:44:30.420Z,5.30673
2023-02-15T21:49:32.066Z,6.19913
2023-02-15T21:54:33.752Z,5.59255
2023-02-15T21:59:35.379Z,5.31625
2023-02-15T22:04:36.995Z,5.54872
2023-02-15T22:09:38.759Z,5.47219
2023-02-15T22:14:40.377Z,5.57191
2023-02-15T22:19:41.970Z,5.65543
2023-02-15T22:24:43.613Z,4.824
2023-02-15T22:29:45.216Z,4.63377
2023-02-15T22:34:46.960Z,5.81136
2023-02-15T22:39:48.609Z,5.2051
2023-02-15T22:44:50.476Z,5.3045
2023-02-15T22:49:52.085Z,5.30831
2023-02-15T22:54:54.017Z,5.37437
2023-02-15T22:59:55.605Z,5.86345
2023-02-15T23:04:57.520Z,5.42455
2023-02-15T23:09:59.519Z,6.26583
2023-02-15T23:15:01.254Z,5.43344
2023-02-15T23:20:02.872Z,5.51728
2023-02-15T23:25:04.544Z,5.23432
2023-02-15T23:30:06.236Z,5.4814
2023-02-15T23:35:09.582Z,3.96908
2023-02-15T23:40:11.348Z,4.42481
2023-02-15T23:45:13.123Z,4.61123
2023-02-15T23:50:14.806Z,4.84306
2023-02-15T23:55:16.462Z,4.45752
